Pagina principale
METAR-TAF:

METAR-TAF

Aeroporti :

Aeroporto di Pescara

Pescara, Italia

latitudine: 42-26N, longitudine: 014-12E, altezza: 10 m

Osservazione

Il bollettino è stato emesso 40 minuti fa, alle 03:20 UTC
Vento 5 kt da sud/sud-ovest
Temperature 4°C
Umidità 93%
Pressione 1022 hPa
Visibilità: 9000 m

METAR: LIBP 270320Z AUTO 20005KT 9000 NCD 04/03 Q1022

Ora: 05:00 (04:00 UTC)

Previsione

Il bollettino è stato emesso 5 ore e 0 minuti fa, alle 23:00 UTC
Previsione valida dal 27 alle 00 UTC al 27 alle 24 UTC
Vento 5 kt da direzioni variabili
Visibilità 10 km o più
nessuna nube inferiore a 1500 m e nessun cumulonembo
Temporaneamente
dal 27 alle 00 UTC al 27 alle 06 UTC
Visibilità: 4000 m
foschia
Evoluzione graduale
dal 27 alle 09 UTC al 27 alle 11 UTC
Vento 10 kt da nord

TAF: LIBP 262300Z 2700/2724 VRB05KT CAVOK TEMPO 2700/2706 4000 BR BECMG 2709/2711 35010KT

Osservazioni e previsioni meteorologiche di più di 4000 aeroporti (messaggi METAR e TAF).

Le stazioni disponibili sono rappresentate dai dischi gialli e rossi sulla carta.

Puntare il mouse per vedere il nome della stazione.

Clicca sopra per visualizzare le osservazioni e previsioni meteorologiche.

Per cambiare la mappa : fare clic sui pulsanti verdi con una croce nera per ingrandire, il pulsante verde con un trattino per diminuire, o sulla freccia verde per le mappe adiacenti.


METAR-TAF: